Time;durP1;ratioP1;P1;durP2;ratioP2;P2;SDS_P1;SDS_P2;PMS_P1;PMS_P2;Temp;Humidity;BMP_temperature;BMP_pressure;BME280_temperature;BME280_humidity;BME280_pressure;Samples;Min_cycle;Max_cycle;Signal;HPM_P1;HPM_P2
2023/02/27 00:04:36;;;;;;;6.78;2.65;;;-1.20;99.90;;;;;;12537537;28;20044;-78
2023/02/27 00:10:39;;;;;;;6.47;3.10;;;-1.20;99.90;;;;;;12528770;28;20053;-78
2023/02/27 00:16:41;;;;;;;6.63;2.50;;;-1.20;99.90;;;;;;12534829;28;20324;-78
2023/02/27 00:22:44;;;;;;;7.25;2.67;;;-1.30;99.90;;;;;;12521041;28;20059;-79
2023/02/27 00:28:46;;;;;;;4.68;2.55;;;-1.30;99.90;;;;;;12526012;28;20060;-80
2023/02/27 00:34:48;;;;;;;7.35;2.78;;;-1.30;99.90;;;;;;12525862;28;20420;-79
2023/02/27 00:40:50;;;;;;;9.48;2.67;;;-1.30;99.90;;;;;;12526918;28;20052;-79
2023/02/27 00:46:52;;;;;;;7.05;2.38;;;-1.40;99.90;;;;;;12526857;28;20060;-79
2023/02/27 00:52:54;;;;;;;6.63;2.40;;;-1.50;99.90;;;;;;12524514;28;20041;-80
2023/02/27 00:58:56;;;;;;;4.50;2.20;;;-1.50;99.90;;;;;;12525714;28;20055;-79
2023/02/27 01:04:58;;;;;;;6.93;2.25;;;-1.50;99.90;;;;;;12543484;28;20136;-79
2023/02/27 01:11:00;;;;;;;5.95;2.55;;;-1.50;99.90;;;;;;12554791;28;20049;-78
2023/02/27 01:17:02;;;;;;;7.40;2.85;;;-1.60;99.90;;;;;;12515853;28;20098;-79
2023/02/27 01:23:04;;;;;;;10.98;2.63;;;-1.60;99.90;;;;;;12505426;23;20527;-88
2023/02/27 01:29:06;;;;;;;8.07;2.97;;;-1.60;99.90;;;;;;12458203;28;20203;-88
2023/02/27 01:35:08;;;;;;;5.47;2.30;;;-1.70;99.90;;;;;;12464248;28;20091;-87
2023/02/27 01:41:10;;;;;;;7.05;2.85;;;-1.70;99.90;;;;;;12446623;28;20188;-88
2023/02/27 01:47:12;;;;;;;6.55;2.55;;;-1.80;99.90;;;;;;12473506;28;20120;-88
2023/02/27 01:53:15;;;;;;;6.25;2.50;;;-1.90;99.90;;;;;;12469497;28;20846;-88
2023/02/27 01:59:18;;;;;;;12.10;2.63;;;-1.90;99.90;;;;;;12473841;28;20052;-87
2023/02/27 02:05:21;;;;;;;5.70;2.42;;;-2.00;99.90;;;;;;12457797;28;20049;-88
2023/02/27 02:11:26;;;;;;;7.53;2.60;;;-2.00;99.90;;;;;;12456820;28;20079;-88
2023/02/27 02:17:38;;;;;;;;;;;-2.00;99.90;;;;;;12444979;28;20099;-88
2023/02/27 02:24:25;;;;;;;6.05;2.15;;;-2.00;99.90;;;;;;12443586;28;19928;-87
2023/02/27 02:30:41;;;;;;;5.65;2.30;;;-2.10;99.90;;;;;;12398776;28;20049;-88
2023/02/27 02:37:02;;;;;;;4.97;2.00;;;-2.10;99.90;;;;;;12480675;28;20060;-88
2023/02/27 02:43:11;;;;;;;6.15;2.33;;;-2.20;99.90;;;;;;12467553;28;20068;-88
2023/02/27 02:49:30;;;;;;;6.90;2.42;;;-2.40;99.90;;;;;;12464227;28;20085;-88
2023/02/27 02:55:58;;;;;;;7.78;2.70;;;-2.30;99.90;;;;;;12495537;28;20120;-88
2023/02/27 03:02:05;;;;;;;7.63;2.72;;;-2.20;99.90;;;;;;12466751;28;20046;-88
2023/02/27 03:08:12;;;;;;;6.47;2.75;;;-2.40;99.90;;;;;;12477526;28;20061;-88
2023/02/27 03:14:27;;;;;;;7.38;3.10;;;-2.30;99.90;;;;;;12474027;28;20057;-88
2023/02/27 03:20:45;;;;;;;5.95;3.05;;;-2.30;99.90;;;;;;12484199;28;20080;-88
2023/02/27 03:26:50;;;;;;;9.00;3.40;;;-2.40;99.90;;;;;;12459979;28;20050;-88
2023/02/27 03:32:55;;;;;;;9.52;3.40;;;-2.40;99.90;;;;;;12469740;28;20122;-89
2023/02/27 03:39:05;;;;;;;7.28;2.92;;;-2.60;99.90;;;;;;12471045;28;20375;-88
2023/02/27 03:45:29;;;;;;;7.63;2.95;;;-2.50;99.90;;;;;;12465114;28;20041;-88
2023/02/27 03:51:32;;;;;;;7.47;3.40;;;-2.50;99.90;;;;;;12469383;28;20052;-89
2023/02/27 03:57:36;;;;;;;6.88;2.60;;;-2.50;99.90;;;;;;12474088;28;20049;-89
2023/02/27 04:03:46;;;;;;;8.82;2.97;;;-2.50;99.90;;;;;;12472930;28;20053;-89
2023/02/27 04:10:14;;;;;;;9.65;2.97;;;-2.50;99.90;;;;;;12463386;28;20137;-89
2023/02/27 04:16:27;;;;;;;6.65;2.72;;;-2.60;99.90;;;;;;12455844;28;20135;-89
2023/02/27 04:22:37;;;;;;;10.82;3.10;;;-2.70;99.90;;;;;;12458768;28;20443;-89
2023/02/27 04:28:48;;;;;;;6.40;2.80;;;-2.60;99.90;;;;;;12480493;28;20053;-89
2023/02/27 04:34:57;;;;;;;6.80;3.28;;;-2.60;99.90;;;;;;12477669;28;20053;-89
2023/02/27 04:41:04;;;;;;;8.55;2.85;;;-2.60;99.90;;;;;;12486052;28;20069;-89
2023/02/27 04:47:10;;;;;;;5.43;3.13;;;-2.60;99.90;;;;;;12476922;28;20461;-89
2023/02/27 04:53:24;;;;;;;8.27;3.25;;;-2.70;99.90;;;;;;12458348;28;20199;-89
2023/02/27 04:59:34;;;;;;;8.13;3.03;;;-2.80;99.90;;;;;;12466622;28;20057;-89
2023/02/27 05:05:38;;;;;;;7.18;3.20;;;-2.80;99.90;;;;;;12473239;28;20080;-89
2023/02/27 05:11:53;;;;;;;11.75;3.40;;;-2.80;99.90;;;;;;12459621;28;20057;-89
2023/02/27 05:18:04;;;;;;;;;;;-2.70;99.90;;;;;;12473677;28;20077;-89
2023/02/27 05:24:15;;;;;;;6.72;3.03;;;-2.80;99.90;;;;;;12437967;28;19929;-89
2023/02/27 05:30:24;;;;;;;8.35;3.53;;;-2.80;99.90;;;;;;12424803;28;20045;-89
2023/02/27 05:36:33;;;;;;;7.85;3.28;;;-2.80;99.90;;;;;;12433736;28;20052;-89
2023/02/27 05:42:48;;;;;;;9.85;3.53;;;-2.90;99.90;;;;;;12434931;28;20080;-88
2023/02/27 05:48:55;;;;;;;;;;;-2.80;99.90;;;;;;12445503;28;20056;-89
2023/02/27 05:55:12;;;;;;;7.13;3.65;;;-2.80;99.90;;;;;;12433710;28;19944;-89
2023/02/27 06:01:15;;;;;;;6.00;2.75;;;-2.90;99.90;;;;;;12429630;28;20070;-89
2023/02/27 06:07:18;;;;;;;6.10;2.97;;;-2.80;99.90;;;;;;12431293;28;20057;-88
2023/02/27 06:13:22;;;;;;;5.68;2.78;;;-2.90;99.90;;;;;;12439565;28;20054;-90
2023/02/27 06:19:24;;;;;;;8.25;3.70;;;-2.90;99.90;;;;;;12428827;28;20062;-89
2023/02/27 06:25:26;;;;;;;9.00;4.45;;;-2.80;99.90;;;;;;12441161;28;20489;-90
2023/02/27 06:31:28;;;;;;;11.02;3.70;;;-2.80;99.90;;;;;;12457883;28;20058;-90
2023/02/27 06:37:30;;;;;;;8.02;3.75;;;-2.70;99.90;;;;;;12429762;28;20108;-90
2023/02/27 06:43:33;;;;;;;9.27;3.67;;;-2.70;99.90;;;;;;12445593;28;20042;-89
2023/02/27 06:49:35;;;;;;;6.45;3.40;;;-2.70;99.90;;;;;;12434232;28;20056;-90
2023/02/27 06:55:37;;;;;;;6.18;3.55;;;-2.50;99.90;;;;;;12440360;28;20052;-90
2023/02/27 07:01:39;;;;;;;8.52;4.13;;;-2.20;99.90;;;;;;12437618;28;20045;-90
2023/02/27 07:07:41;;;;;;;9.63;3.42;;;-2.10;99.90;;;;;;12449179;28;20057;-90
2023/02/27 07:13:43;;;;;;;6.13;3.40;;;-1.80;99.90;;;;;;12441758;28;20137;-90
2023/02/27 07:19:46;;;;;;;6.00;3.03;;;-1.60;99.90;;;;;;12444580;28;20057;-89
2023/02/27 07:25:48;;;;;;;8.98;3.70;;;-1.40;99.90;;;;;;12460685;28;20171;-89
2023/02/27 07:31:51;;;;;;;16.45;4.00;;;-1.20;99.90;;;;;;12466315;28;20084;-89
2023/02/27 07:37:54;;;;;;;10.07;4.03;;;-1.00;99.90;;;;;;12471411;28;20056;-90
2023/02/27 07:43:56;;;;;;;5.47;3.38;;;-0.70;99.90;;;;;;12461545;28;20135;-90
2023/02/27 07:49:58;;;;;;;7.10;3.45;;;-0.20;99.90;;;;;;12479724;28;20452;-90
2023/02/27 07:56:00;;;;;;;11.57;3.80;;;0.20;99.90;;;;;;12448501;28;20045;-90
2023/02/27 08:02:03;;;;;;;11.23;4.10;;;0.40;99.90;;;;;;12458746;28;20037;-90
2023/02/27 08:08:06;;;;;;;7.18;3.67;;;0.50;99.90;;;;;;12461702;28;20053;-90
2023/02/27 08:14:08;;;;;;;6.32;3.72;;;0.80;99.90;;;;;;12462183;28;20041;-90
2023/02/27 08:20:12;;;;;;;7.13;3.40;;;0.80;99.90;;;;;;12469552;28;20057;-86
2023/02/27 08:26:15;;;;;;;8.77;3.38;;;1.00;99.90;;;;;;12478132;28;20079;-88
2023/02/27 08:32:17;;;;;;;9.85;4.13;;;0.90;99.90;;;;;;12462426;28;20127;-88
2023/02/27 08:38:20;;;;;;;8.02;3.53;;;1.10;99.90;;;;;;12467276;28;20046;-88
2023/02/27 08:44:23;;;;;;;6.57;3.58;;;1.50;99.90;;;;;;12462549;28;20049;-88
2023/02/27 08:50:25;;;;;;;9.60;3.85;;;1.50;99.90;;;;;;12467258;28;20194;-88
2023/02/27 08:56:33;;;;;;;7.20;3.22;;;1.60;99.90;;;;;;12475820;28;20057;-87
2023/02/27 09:02:35;;;;;;;7.57;3.58;;;1.60;99.90;;;;;;12465034;28;20164;-88
2023/02/27 09:08:38;;;;;;;9.02;2.80;;;1.90;99.90;;;;;;12457033;28;20060;-87
2023/02/27 09:14:41;;;;;;;8.50;4.07;;;1.90;99.90;;;;;;12453015;28;20510;-88
2023/02/27 09:20:43;;;;;;;6.03;3.13;;;2.10;99.90;;;;;;12462203;28;20033;-88
2023/02/27 09:26:46;;;;;;;7.82;3.08;;;2.50;99.90;;;;;;12463331;28;20042;-87
2023/02/27 09:32:50;;;;;;;6.75;2.83;;;2.70;99.90;;;;;;12471625;28;20191;-88
2023/02/27 09:38:52;;;;;;;7.13;3.03;;;2.70;99.90;;;;;;12466474;28;20104;-89
2023/02/27 09:45:02;;;;;;;4.50;2.63;;;2.50;99.90;;;;;;12459070;28;20435;-89
2023/02/27 09:51:06;;;;;;;9.70;2.80;;;2.80;99.90;;;;;;12466871;28;20045;-88
2023/02/27 09:57:16;;;;;;;8.13;3.35;;;2.90;99.90;;;;;;12462705;28;20095;-89
2023/02/27 10:03:51;;;;;;;7.00;2.33;;;3.10;99.90;;;;;;12464195;28;20049;-89
2023/02/27 10:10:14;;;;;;;6.63;2.07;;;3.60;99.90;;;;;;12450197;28;20045;-89
2023/02/27 10:16:20;;;;;;;5.23;2.20;;;3.50;99.90;;;;;;12460119;28;20048;-89
2023/02/27 10:22:34;;;;;;;7.90;2.33;;;3.90;99.90;;;;;;12456487;28;20061;-89
2023/02/27 10:28:36;;;;;;;7.70;2.50;;;3.80;99.90;;;;;;12483540;28;20041;-89
2023/02/27 10:34:41;;;;;;;5.93;2.33;;;3.90;99.90;;;;;;12466595;28;20041;-89
2023/02/27 10:40:44;;;;;;;6.75;2.50;;;4.00;99.90;;;;;;12462132;28;20045;-89
2023/02/27 10:46:47;;;;;;;8.60;2.30;;;3.80;99.90;;;;;;12465315;28;20412;-89
2023/02/27 10:52:58;;;;;;;3.78;1.60;;;4.10;99.90;;;;;;12455520;28;20045;-88
2023/02/27 10:59:37;;;;;;;6.28;2.00;;;4.10;99.90;;;;;;12442955;28;20473;-89
2023/02/27 11:05:39;;;;;;;5.72;1.80;;;4.20;99.90;;;;;;12431274;28;20076;-88
2023/02/27 11:11:41;;;;;;;8.25;2.25;;;4.20;99.90;;;;;;12468506;28;20033;-89
2023/02/27 11:17:43;;;;;;;4.25;1.45;;;4.60;99.90;;;;;;12468183;28;20057;-88
2023/02/27 11:24:02;;;;;;;8.93;1.75;;;4.60;99.90;;;;;;12473776;28;20180;-89
2023/02/27 11:30:21;;;;;;;5.90;1.60;;;4.50;99.90;;;;;;12461372;28;20050;-89
2023/02/27 11:36:41;;;;;;;7.88;1.48;;;4.40;99.90;;;;;;12477902;28;20064;-89
2023/02/27 11:42:51;;;;;;;4.93;1.50;;;4.50;99.90;;;;;;12465874;28;20072;-89
2023/02/27 11:49:13;;;;;;;3.35;1.42;;;4.90;99.90;;;;;;12467010;28;20060;-89
2023/02/27 11:55:19;;;;;;;4.45;1.58;;;4.90;99.90;;;;;;12469687;28;20561;-89
2023/02/27 12:01:32;;;;;;;4.25;1.40;;;5.20;99.90;;;;;;12453967;28;20045;-89
2023/02/27 12:07:43;;;;;;;5.78;1.73;;;4.80;99.90;;;;;;12473901;28;20060;-89
2023/02/27 12:13:52;;;;;;;5.55;1.65;;;4.70;99.90;;;;;;12460756;28;20516;-89
2023/02/27 12:20:32;;;;;;;4.38;1.65;;;4.60;99.90;;;;;;12470903;28;20049;-88
2023/02/27 12:26:44;;;;;;;4.25;1.70;;;5.10;99.90;;;;;;12453245;28;20046;-89
2023/02/27 12:32:59;;;;;;;5.45;1.85;;;5.20;99.90;;;;;;12458443;28;20481;-89
2023/02/27 12:39:03;;;;;;;;;;;5.30;99.90;;;;;;12472606;28;20042;-89
2023/02/27 12:45:14;;;;;;;4.60;1.50;;;5.10;99.90;;;;;;12454550;28;19987;-89
2023/02/27 12:51:38;;;;;;;4.30;1.63;;;5.60;99.90;;;;;;12459447;28;20049;-89
2023/02/27 12:58:05;;;;;;;4.33;1.40;;;5.80;99.90;;;;;;12428519;28;20087;-89
2023/02/27 13:04:21;;;;;;;4.97;1.42;;;5.10;99.90;;;;;;12438188;28;20307;-88
2023/02/27 13:10:33;;;;;;;4.85;1.48;;;4.80;99.90;;;;;;12461466;28;20041;-89
2023/02/27 13:16:45;;;;;;;4.88;1.50;;;4.80;99.90;;;;;;12450703;28;20052;-89
2023/02/27 13:23:00;;;;;;;3.53;1.60;;;5.20;99.90;;;;;;12463291;28;20498;-89
2023/02/27 13:29:03;;;;;;;7.80;1.55;;;5.30;99.90;;;;;;12468480;28;20667;-88
2023/02/27 13:35:44;;;;;;;3.20;1.53;;;4.90;99.90;;;;;;12453029;28;20124;-89
2023/02/27 13:41:46;;;;;;;8.05;2.00;;;5.30;99.90;;;;;;12462180;28;20133;-89
2023/02/27 13:47:49;;;;;;;4.25;1.45;;;5.00;99.90;;;;;;12471078;28;20041;-89
2023/02/27 13:54:11;;;;;;;8.52;2.55;;;4.90;99.90;;;;;;12474233;28;20061;-89
2023/02/27 14:00:17;;;;;;;3.25;1.35;;;4.90;99.90;;;;;;12468689;28;20464;-89
2023/02/27 14:06:22;;;;;;;4.32;1.17;;;4.40;99.90;;;;;;12454080;28;20489;-89
2023/02/27 14:12:34;;;;;;;4.32;1.38;;;4.50;99.90;;;;;;12465695;28;20046;-89
2023/02/27 14:18:58;;;;;;;5.07;1.30;;;4.90;99.90;;;;;;12448532;28;20053;-89
2023/02/27 14:25:20;;;;;;;3.83;1.05;;;4.70;99.90;;;;;;12457596;28;20077;-89
2023/02/27 14:31:24;;;;;;;5.43;1.58;;;4.20;99.90;;;;;;12459909;28;20077;-88
2023/02/27 14:37:27;;;;;;;6.20;1.37;;;4.50;99.90;;;;;;12458110;28;20041;-89
2023/02/27 14:43:39;;;;;;;3.67;1.58;;;4.60;99.90;;;;;;12468350;28;20284;-89
2023/02/27 14:49:44;;;;;;;3.10;1.10;;;4.50;99.90;;;;;;12465982;28;20412;-89
2023/02/27 14:55:54;;;;;;;6.50;1.80;;;4.60;99.90;;;;;;12491454;28;20045;-89
2023/02/27 15:02:00;;;;;;;6.65;1.25;;;4.80;99.90;;;;;;12468974;28;20046;-89
2023/02/27 15:08:03;;;;;;;4.47;1.80;;;4.70;99.90;;;;;;12469376;28;20060;-89
2023/02/27 15:14:06;;;;;;;2.78;1.17;;;4.50;99.90;;;;;;12475972;28;20034;-89
2023/02/27 15:20:29;;;;;;;3.45;1.48;;;4.60;99.90;;;;;;12474186;28;21174;-89
2023/02/27 15:26:38;;;;;;;2.92;1.40;;;4.90;99.90;;;;;;12467957;28;20060;-89
2023/02/27 15:32:42;;;;;;;2.38;0.70;;;4.80;99.90;;;;;;12457374;28;20067;-89
2023/02/27 15:38:43;;;;;;;4.95;1.50;;;4.50;99.90;;;;;;12457472;28;20132;-89
2023/02/27 15:44:46;;;;;;;3.15;1.02;;;4.30;99.90;;;;;;12463001;28;20056;-89
2023/02/27 15:50:53;;;;;;;4.13;1.02;;;4.00;99.90;;;;;;12470666;28;20075;-89
2023/02/27 15:56:55;;;;;;;4.30;1.20;;;3.80;99.90;;;;;;12444652;28;20041;-89
2023/02/27 16:03:00;;;;;;;4.00;1.20;;;3.90;99.90;;;;;;12454115;28;20045;-89
2023/02/27 16:09:05;;;;;;;5.25;1.30;;;4.20;99.90;;;;;;12468563;28;20493;-89
2023/02/27 16:15:20;;;;;;;2.97;1.00;;;4.40;99.90;;;;;;12482631;28;20090;-89
2023/02/27 16:21:27;;;;;;;4.18;0.90;;;4.50;99.90;;;;;;12462568;28;20501;-89
2023/02/27 16:27:34;;;;;;;3.03;1.10;;;4.50;99.90;;;;;;12466816;28;20065;-89
2023/02/27 16:33:38;;;;;;;3.50;1.17;;;4.40;99.90;;;;;;12467757;28;20072;-89
2023/02/27 16:39:40;;;;;;;3.40;1.10;;;4.30;99.90;;;;;;12461228;28;20041;-89
2023/02/27 16:45:55;;;;;;;5.60;1.40;;;4.10;99.90;;;;;;12469026;28;20048;-89
2023/02/27 16:52:01;;;;;;;5.25;1.33;;;4.00;99.90;;;;;;12461548;28;20397;-89
2023/02/27 16:58:06;;;;;;;4.40;1.20;;;3.90;99.90;;;;;;12444591;28;20072;-89
2023/02/27 17:04:09;;;;;;;4.63;1.85;;;3.80;99.90;;;;;;12467865;28;20042;-89
2023/02/27 17:10:26;;;;;;;5.40;1.65;;;3.60;99.90;;;;;;12477555;28;20451;-88
2023/02/27 17:16:28;;;;;;;6.80;1.40;;;3.50;99.90;;;;;;12468318;28;20045;-89
2023/02/27 17:22:34;;;;;;;5.38;1.75;;;3.40;99.90;;;;;;12467746;28;20056;-89
2023/02/27 17:28:36;;;;;;;5.65;1.52;;;3.30;99.90;;;;;;12469273;28;20056;-89
2023/02/27 17:34:38;;;;;;;5.10;1.67;;;3.20;99.90;;;;;;12470010;28;20386;-88
2023/02/27 17:40:45;;;;;;;3.75;1.83;;;3.10;99.90;;;;;;12488545;28;20434;-88
2023/02/27 17:46:47;;;;;;;6.88;2.05;;;3.10;99.90;;;;;;12468130;28;20064;-88
2023/02/27 17:52:50;;;;;;;16.08;2.25;;;2.90;99.90;;;;;;12445903;28;20929;-88
2023/02/27 17:58:53;;;;;;;4.70;1.58;;;2.80;99.90;;;;;;12445558;28;20046;-87
2023/02/27 18:04:55;;;;;;;6.70;1.80;;;2.70;99.90;;;;;;12439698;28;20072;-88
2023/02/27 18:10:58;;;;;;;3.83;1.70;;;2.60;99.90;;;;;;12463553;28;20050;-87
2023/02/27 18:17:01;;;;;;;7.88;2.30;;;2.40;99.90;;;;;;12483303;28;20408;-88
2023/02/27 18:23:03;;;;;;;8.90;2.80;;;2.10;99.90;;;;;;12472494;28;20041;-88
2023/02/27 18:29:09;;;;;;;9.80;2.80;;;2.00;99.90;;;;;;12473081;28;20049;-88
2023/02/27 18:35:11;;;;;;;6.97;2.90;;;2.00;99.90;;;;;;12467827;28;20489;-87
2023/02/27 18:41:13;;;;;;;8.65;3.70;;;2.00;99.90;;;;;;12465915;28;20114;-87
2023/02/27 18:47:16;;;;;;;6.82;2.60;;;2.30;99.90;;;;;;12466526;28;20122;-87
2023/02/27 18:53:18;;;;;;;4.47;2.28;;;2.30;99.90;;;;;;12465707;28;20053;-88
2023/02/27 18:59:20;;;;;;;5.88;2.35;;;2.30;99.90;;;;;;12469696;28;20053;-88
2023/02/27 19:05:22;;;;;;;6.85;2.00;;;2.30;99.90;;;;;;12451837;28;20053;-88
2023/02/27 19:11:31;;;;;;;4.47;1.75;;;2.30;99.90;;;;;;12470197;28;20136;-88
2023/02/27 19:17:35;;;;;;;8.63;1.83;;;2.30;99.90;;;;;;12486954;28;20088;-87
2023/02/27 19:23:37;;;;;;;3.78;2.05;;;2.10;99.90;;;;;;12462139;28;20667;-87
2023/02/27 19:29:39;;;;;;;8.45;1.95;;;2.00;99.90;;;;;;12476085;28;20050;-87
2023/02/27 19:35:41;;;;;;;6.25;2.00;;;2.00;99.90;;;;;;12475935;28;20091;-87
2023/02/27 19:41:44;;;;;;;4.03;1.63;;;2.20;99.90;;;;;;12468939;28;20095;-87
2023/02/27 19:47:46;;;;;;;5.25;1.95;;;2.20;99.90;;;;;;12489274;28;20053;-87
2023/02/27 19:53:48;;;;;;;4.13;1.50;;;2.20;99.90;;;;;;12470196;28;20049;-87
2023/02/27 19:59:51;;;;;;;3.75;1.58;;;2.20;99.90;;;;;;12472851;28;20041;-87
2023/02/27 20:05:54;;;;;;;4.97;1.83;;;2.00;99.90;;;;;;12471468;28;20049;-87
2023/02/27 20:11:59;;;;;;;3.97;1.60;;;1.90;99.90;;;;;;12468941;28;20095;-87
2023/02/27 20:18:01;;;;;;;3.58;1.40;;;1.70;99.90;;;;;;12459187;28;20045;-87
2023/02/27 20:24:03;;;;;;;5.22;1.50;;;1.50;99.90;;;;;;12462740;28;20126;-87
2023/02/27 20:30:06;;;;;;;4.47;1.65;;;1.40;99.90;;;;;;12465514;28;20050;-87
2023/02/27 20:36:10;;;;;;;4.18;1.60;;;1.30;99.90;;;;;;12472731;28;20049;-87
2023/02/27 20:42:13;;;;;;;11.02;2.17;;;1.00;99.90;;;;;;12470969;28;20041;-87
2023/02/27 20:48:14;;;;;;;4.93;1.95;;;0.90;99.90;;;;;;12482365;28;20064;-87
2023/02/27 20:54:19;;;;;;;6.55;2.40;;;0.90;99.90;;;;;;12460727;28;20067;-87
2023/02/27 21:00:24;;;;;;;6.35;2.40;;;0.80;99.90;;;;;;12449805;28;20041;-87
2023/02/27 21:06:26;;;;;;;4.78;1.85;;;0.70;99.90;;;;;;12461035;28;20085;-87
2023/02/27 21:12:29;;;;;;;6.38;1.98;;;0.50;99.90;;;;;;12461775;28;20037;-87
2023/02/27 21:18:31;;;;;;;5.60;2.03;;;0.50;99.90;;;;;;12458987;28;20045;-87
2023/02/27 21:24:33;;;;;;;3.15;1.75;;;0.30;99.90;;;;;;12452342;28;20049;-87
2023/02/27 21:30:36;;;;;;;5.20;1.90;;;0.40;99.90;;;;;;12481127;28;20387;-87
2023/02/27 21:36:41;;;;;;;5.30;1.70;;;0.40;99.90;;;;;;12475470;28;20187;-87
2023/02/27 21:42:43;;;;;;;4.70;1.48;;;0.20;99.90;;;;;;12439691;28;20076;-87
2023/02/27 21:48:46;;;;;;;3.97;1.52;;;0.10;99.90;;;;;;12463692;28;20141;-87
2023/02/27 21:54:49;;;;;;;5.53;1.80;;;0.10;99.90;;;;;;12459245;28;20459;-87
2023/02/27 22:00:51;;;;;;;4.30;1.70;;;0.20;99.90;;;;;;12474509;28;20504;-87
2023/02/27 22:06:53;;;;;;;5.68;1.92;;;0.10;99.90;;;;;;12468288;28;20045;-87
2023/02/27 22:12:55;;;;;;;4.88;1.73;;;0.10;99.90;;;;;;12470132;28;20405;-87
2023/02/27 22:18:57;;;;;;;9.63;4.30;;;0.10;99.90;;;;;;12467897;28;20045;-87
2023/02/27 22:24:59;;;;;;;6.20;2.40;;;-0.10;99.90;;;;;;12459840;28;20140;-87
2023/02/27 22:31:11;;;;;;;5.72;2.05;;;-0.10;99.90;;;;;;12474184;28;20041;-87
2023/02/27 22:37:14;;;;;;;4.43;1.67;;;-0.10;99.90;;;;;;12454416;28;20053;-87
2023/02/27 22:43:16;;;;;;;5.22;3.00;;;-0.20;99.90;;;;;;12456433;28;20052;-87
2023/02/27 22:49:21;;;;;;;4.40;2.40;;;-0.20;99.90;;;;;;12485524;28;20473;-87
2023/02/27 22:55:23;;;;;;;;;;;-0.20;99.90;;;;;;12459258;28;20042;-87
2023/02/27 23:01:28;;;;;;;5.13;2.03;;;-0.20;99.90;;;;;;12470455;28;19925;-87
2023/02/27 23:07:32;;;;;;;6.78;2.13;;;-0.20;99.90;;;;;;12463056;28;20064;-88
2023/02/27 23:13:34;;;;;;;5.88;2.20;;;-0.20;99.90;;;;;;12469079;28;20056;-87
2023/02/27 23:19:36;;;;;;;4.80;1.73;;;-0.20;99.90;;;;;;12492900;28;20175;-87
2023/02/27 23:25:37;;;;;;;4.97;1.52;;;-0.10;99.90;;;;;;12487368;28;20069;-87
2023/02/27 23:31:41;;;;;;;3.53;1.50;;;-0.30;99.90;;;;;;12531673;28;20045;-87
2023/02/27 23:37:43;;;;;;;3.22;1.30;;;-0.30;99.90;;;;;;12532300;28;20080;-87
2023/02/27 23:43:46;;;;;;;2.47;1.33;;;-0.40;99.90;;;;;;12530799;28;20049;-87
2023/02/27 23:49:48;;;;;;;2.60;1.25;;;-0.50;99.90;;;;;;12522094;28;20056;-87
2023/02/27 23:55:50;;;;;;;4.03;1.73;;;-0.60;99.90;;;;;;12520436;28;20029;-87
